Time;durP1;ratioP1;P1;durP2;ratioP2;P2;SDS_P1;SDS_P2;PMS_P1;PMS_P2;Temp;Humidity;BMP_temperature;BMP_pressure;BME280_temperature;BME280_humidity;BME280_pressure;Samples;Min_cycle;Max_cycle;Signal;HPM_P1;HPM_P2
2022/01/20 00:03:32;;;;;;;53.95;26.33;;;;;;;0.50;56.91;100318.13;4422186;32;34111;-73
2022/01/20 00:27:56;;;;;;;82.05;36.30;;;;;;;0.38;56.94;100330.81;4410730;32;32232;-74
2022/01/20 00:38:24;;;;;;;55.12;27.67;;;;;;;0.40;56.61;100331.53;4412619;32;34375;-74
2022/01/20 00:40:53;;;;;;;62.47;27.10;;;;;;;0.16;57.31;100337.12;4410845;32;34389;-74
2022/01/20 00:43:21;;;;;;;52.67;24.93;;;;;;;0.12;57.62;100330.25;4398706;32;34049;-74
2022/01/20 00:45:49;;;;;;;49.85;24.00;;;;;;;0.10;57.66;100334.94;4423074;32;34116;-74
2022/01/20 00:48:20;;;;;;;59.83;27.90;;;;;;;0.21;57.39;100334.91;4409573;32;33398;-73
2022/01/20 00:50:48;;;;;;;55.78;27.30;;;;;;;0.40;56.73;100341.47;4397587;32;34239;-73
2022/01/20 00:53:16;;;;;;;46.53;22.08;;;;;;;0.22;56.75;100338.47;4424436;32;33883;-74
2022/01/20 00:55:44;;;;;;;51.58;24.02;;;;;;;0.36;56.49;100334.63;4410765;32;33347;-74
2022/01/20 00:58:11;;;;;;;41.40;21.20;;;;;;;0.26;56.65;100332.69;4410385;32;32212;-74
2022/01/20 01:00:39;;;;;;;41.17;20.35;;;;;;;0.32;56.32;100340.25;4423929;32;35269;-74
2022/01/20 01:03:07;;;;;;;44.72;21.30;;;;;;;0.41;55.80;100325.16;4423228;32;34676;-74
2022/01/20 01:05:41;;;;;;;37.93;19.30;;;;;;;0.35;56.06;100346.41;4423869;32;33398;-73
2022/01/20 01:08:09;;;;;;;45.35;21.45;;;;;;;0.30;56.34;100341.38;4424146;32;34692;-74
2022/01/20 01:10:39;;;;;;;36.13;18.20;;;;;;;0.16;56.45;100337.12;4424081;32;35393;-74
2022/01/20 01:13:13;;;;;;;39.00;17.02;;;;;;;0.16;56.62;100345.22;4398096;32;33344;-74
2022/01/20 01:15:45;;;;;;;40.83;17.95;;;;;;;0.08;57.05;100339.59;4410932;32;33383;-74
2022/01/20 01:23:36;;;;;;;37.92;17.40;;;;;;;0.16;56.84;100337.12;4409146;32;34833;-73
2022/01/20 01:26:08;;;;;;;34.80;17.73;;;;;;;0.18;56.68;100340.56;4423534;32;33184;-74
2022/01/20 01:28:35;;;;;;;35.45;17.15;;;;;;;0.37;56.13;100333.62;4410365;32;33458;-74
2022/01/20 01:31:29;;;;;;;35.10;17.92;;;;;;;0.30;56.39;100322.47;4410011;32;35236;-73
2022/01/20 01:34:04;;;;;;;33.05;16.55;;;;;;;0.23;56.67;100321.28;4412605;32;32832;-78
2022/01/20 01:36:46;;;;;;;33.97;16.33;;;;;;;0.11;57.14;100309.66;4398377;32;32822;-79
2022/01/20 01:39:15;;;;;;;37.55;16.83;;;;;;;0.21;57.12;100302.50;4399254;32;32238;-79
2022/01/20 01:41:44;;;;;;;31.58;17.20;;;;;;;0.29;57.19;100297.34;4410216;32;35308;-80
2022/01/20 01:44:20;;;;;;;34.53;14.77;;;;;;;0.20;57.92;100294.53;4410504;32;34609;-80
2022/01/20 01:46:49;;;;;;;34.88;15.55;;;;;;;0.14;58.39;100297.75;4409524;32;32825;-78
2022/01/20 01:49:17;;;;;;;32.47;14.27;;;;;;;0.29;58.20;100278.44;4397671;32;32106;-78
2022/01/20 01:51:45;;;;;;;36.83;14.80;;;;;;;0.40;58.06;100268.56;4410372;32;34718;-80
2022/01/20 01:54:16;;;;;;;32.88;14.93;;;;;;;0.36;58.69;100259.03;4410178;32;34023;-79
2022/01/20 01:56:47;;;;;;;30.90;15.17;;;;;;;0.41;58.67;100271.16;4409770;32;34121;-79
2022/01/20 01:59:17;;;;;;;41.92;18.37;;;;;;;0.54;58.65;100258.31;4391434;32;32190;-82
2022/01/20 02:01:45;;;;;;;34.15;18.45;;;;;;;0.57;58.97;100244.56;4406270;32;34201;-79
2022/01/20 02:04:19;;;;;;;30.77;16.42;;;;;;;0.77;58.41;100234.69;4422678;32;34852;-80
2022/01/20 02:20:25;;;;;;;51.22;25.73;;;;;;;0.89;59.82;100206.63;4410488;32;33894;-79
2022/01/20 02:22:53;;;;;;;52.95;26.70;;;;;;;1.06;59.28;100202.44;4397722;32;35281;-79
2022/01/20 02:25:26;;;;;;;50.58;24.75;;;;;;;0.91;59.68;100193.81;4410132;32;33108;-79
2022/01/20 02:27:56;;;;;;;43.60;23.67;;;;;;;1.07;59.43;100193.34;4410190;32;33611;-78
2022/01/20 02:30:25;;;;;;;51.88;22.95;;;;;;;1.24;59.04;100181.03;4397834;32;32756;-80
2022/01/20 02:32:59;;;;;;;48.75;22.58;;;;;;;1.09;59.43;100193.19;4397732;32;34051;-80
2022/01/20 02:35:29;;;;;;;43.55;21.67;;;;;;;1.07;59.55;100184.38;4397459;32;33461;-80
2022/01/20 02:38:04;;;;;;;41.97;21.57;;;;;;;1.21;59.05;100192.97;4397839;32;34171;-79
2022/01/20 02:45:52;;;;;;;45.38;19.23;;;;;;;1.28;59.21;100185.16;4409629;32;32425;-79
2022/01/20 02:48:20;;;;;;;41.17;20.60;;;;;;;1.01;60.09;100182.22;4409852;32;34001;-79
2022/01/20 02:50:48;;;;;;;45.65;20.77;;;;;;;0.98;60.18;100173.38;4409615;32;32239;-79
2022/01/20 02:53:19;;;;;;;38.83;19.12;;;;;;;1.11;59.96;100178.56;4409831;32;34569;-79
2022/01/20 02:55:49;;;;;;;32.43;17.43;;;;;;;1.05;59.93;100175.53;4409984;32;33873;-80
2022/01/20 02:58:16;;;;;;;32.38;16.80;;;;;;;1.01;59.80;100174.97;4397126;32;33457;-79
2022/01/20 03:00:44;;;;;;;33.17;16.63;;;;;;;1.22;58.66;100170.34;4409685;32;34513;-80
2022/01/20 03:03:13;;;;;;;35.35;16.62;;;;;;;1.23;58.58;100172.06;4397390;32;34491;-81
2022/01/20 03:05:41;;;;;;;33.00;15.63;;;;;;;1.24;58.28;100167.50;4409797;32;33905;-80
2022/01/20 03:08:08;;;;;;;30.27;14.32;;;;;;;1.17;58.29;100164.50;4409992;32;33343;-82
2022/01/20 03:10:39;;;;;;;29.48;14.18;;;;;;;1.22;57.83;100164.94;4397369;32;33391;-79
2022/01/20 03:13:07;;;;;;;31.12;13.50;;;;;;;1.02;58.42;100149.66;4397108;32;35205;-80
2022/01/20 03:15:37;;;;;;;37.13;16.98;;;;;;;1.11;57.79;100140.72;4397560;32;34554;-79
2022/01/20 03:18:05;;;;;;;34.03;15.35;;;;;;;1.00;57.97;100143.53;4422466;32;33282;-80
2022/01/20 03:20:33;;;;;;;32.83;15.55;;;;;;;0.58;59.73;100142.78;4397359;32;34641;-80
2022/01/20 03:23:01;;;;;;;31.00;14.48;;;;;;;0.72;58.88;100142.41;4409445;32;32938;-79
2022/01/20 03:25:31;;;;;;;30.42;14.32;;;;;;;0.78;58.58;100136.47;4409163;32;33957;-79
2022/01/20 03:27:59;;;;;;;29.02;14.10;;;;;;;0.90;58.15;100139.91;4409113;32;33229;-80
2022/01/20 03:30:27;;;;;;;27.70;14.25;;;;;;;0.82;58.25;100128.94;4397323;32;33881;-80
2022/01/20 03:32:58;;;;;;;26.62;14.40;;;;;;;0.92;57.80;100106.38;4397539;32;35169;-79
2022/01/20 03:35:25;;;;;;;31.92;15.00;;;;;;;0.69;58.41;100115.66;4410245;32;33921;-79
2022/01/20 03:37:55;;;;;;;28.55;14.45;;;;;;;0.76;58.20;100116.81;4397935;32;33398;-79
2022/01/20 03:40:26;;;;;;;32.17;16.00;;;;;;;0.87;57.61;100115.88;4397230;32;33420;-79
2022/01/20 03:42:58;;;;;;;33.20;15.07;;;;;;;0.84;57.57;100110.75;4409588;32;35137;-80
2022/01/20 03:45:27;;;;;;;34.10;15.18;;;;;;;0.69;57.70;100101.31;4410702;32;34694;-79
2022/01/20 03:48:05;;;;;;;29.58;14.27;;;;;;;0.79;57.24;100096.78;4422900;32;33439;-79
2022/01/20 03:53:22;;;;;;;26.98;13.93;;;;;;;0.52;57.70;100110.91;4408382;32;32921;-79
2022/01/20 03:55:53;;;;;;;28.95;13.05;;;;;;;0.52;57.72;100100.12;4398011;32;32341;-79
2022/01/20 03:58:21;;;;;;;31.30;14.03;;;;;;;0.54;57.79;100103.53;4409695;32;33245;-79
2022/01/20 04:00:51;;;;;;;30.02;14.18;;;;;;;0.63;57.41;100091.94;4410407;32;33256;-80
2022/01/20 04:03:20;;;;;;;37.22;15.40;;;;;;;0.48;57.69;100090.56;4398668;32;33958;-79
2022/01/20 04:08:20;;;;;;;29.25;14.55;;;;;;;0.39;58.01;100088.69;4408853;32;32884;-79
2022/01/20 04:10:47;;;;;;;28.50;15.82;;;;;;;0.55;57.40;100097.16;4421174;32;33104;-80
2022/01/20 04:13:16;;;;;;;28.70;14.13;;;;;;;0.50;57.57;100092.16;4408574;32;32941;-79
2022/01/20 04:15:48;;;;;;;31.20;13.32;;;;;;;0.36;57.83;100083.56;4409422;32;34054;-80
2022/01/20 04:18:21;;;;;;;29.02;14.43;;;;;;;0.46;57.42;100087.16;4409261;32;33276;-79
2022/01/20 04:20:49;;;;;;;34.88;14.73;;;;;;;0.38;57.74;100082.44;4396901;32;33722;-80
2022/01/20 04:23:16;;;;;;;26.30;14.38;;;;;;;0.41;57.35;100082.16;4395735;32;32920;-80
2022/01/20 04:25:45;;;;;;;23.87;12.95;;;;;;;0.37;56.86;100094.22;4396491;32;33631;-79
2022/01/20 04:28:13;;;;;;;25.42;13.45;;;;;;;0.34;57.03;100089.09;4396057;32;33039;-80
2022/01/20 04:30:41;;;;;;;28.38;13.73;;;;;;;0.29;56.98;100081.37;4408506;32;32198;-80
2022/01/20 04:33:09;;;;;;;28.12;13.73;;;;;;;0.26;57.17;100088.88;4408543;32;33771;-81
2022/01/20 04:35:37;;;;;;;26.62;12.95;;;;;;;0.33;56.79;100081.97;4395684;32;32584;-81
2022/01/20 04:38:07;;;;;;;44.08;22.80;;;;;;;0.25;56.88;100088.03;4395413;32;34194;-78
2022/01/20 04:40:40;;;;;;;31.02;16.17;;;;;;;-0.09;58.14;100100.91;4395903;32;33773;-79
2022/01/20 04:43:08;;;;;;;31.00;17.12;;;;;;;0.19;57.32;100103.91;4396305;32;32643;-80
2022/01/20 04:45:49;;;;;;;31.87;15.43;;;;;;;0.24;56.95;100112.47;4396040;32;33878;-78
2022/01/20 04:59:12;;;;;;;35.33;16.17;;;;;;;-0.02;58.10;100106.62;4410904;32;34295;-80
2022/01/20 05:01:45;;;;;;;34.30;14.93;;;;;;;-0.12;58.43;100113.81;4410643;32;33736;-80
2022/01/20 05:04:14;;;;;;;30.77;15.70;;;;;;;0.09;58.12;100103.84;4398246;32;33863;-80
2022/01/20 05:06:46;;;;;;;33.23;14.83;;;;;;;-0.07;58.42;100095.38;4398191;32;33248;-79
2022/01/20 05:09:19;;;;;;;33.80;16.20;;;;;;;0.09;58.23;100095.75;4424392;32;33097;-81
2022/01/20 05:11:56;;;;;;;29.17;15.63;;;;;;;0.14;58.49;100101.59;4398142;32;32286;-80
2022/01/20 05:14:24;;;;;;;;;;;;;;;0.04;58.62;100089.03;4412228;32;35194;-79
2022/01/20 05:16:53;;;;;;;31.60;16.07;;;;;;;0.08;58.58;100093.19;4410564;32;32754;-80
2022/01/20 05:19:28;;;;;;;31.40;14.90;;;;;;;0.29;57.93;100089.47;4398158;32;32160;-80
2022/01/20 05:21:57;;;;;;;26.67;13.18;;;;;;;-0.08;58.90;100089.13;4410682;32;34472;-81
2022/01/20 05:24:25;;;;;;;32.50;14.63;;;;;;;0.11;58.58;100091.06;4397807;32;32982;-80
2022/01/20 05:26:55;;;;;;;35.73;15.50;;;;;;;0.19;58.46;100107.47;4398087;32;34217;-76
2022/01/20 05:29:24;;;;;;;32.20;14.33;;;;;;;0.05;58.90;100106.94;4424231;32;33501;-73
2022/01/20 05:31:52;;;;;;;34.30;15.40;;;;;;;0.19;59.13;100104.75;4410342;32;33873;-72
2022/01/20 05:34:22;;;;;;;32.23;15.07;;;;;;;0.09;59.67;100090.34;4423987;32;35066;-73
2022/01/20 05:36:50;;;;;;;29.00;14.00;;;;;;;0.13;60.06;100093.63;4423953;32;33997;-72
2022/01/20 05:39:17;;;;;;;33.93;15.13;;;;;;;0.26;59.34;100078.09;4410222;32;34021;-73
2022/01/20 05:41:45;;;;;;;30.30;15.00;;;;;;;0.04;60.11;100094.44;4424179;32;34779;-73
2022/01/20 05:44:14;;;;;;;31.05;14.73;;;;;;;0.22;60.03;100096.41;4410628;32;33257;-73
2022/01/20 05:46:47;;;;;;;29.87;14.27;;;;;;;0.48;59.41;100090.56;4410298;32;33424;-72
2022/01/20 05:49:22;;;;;;;31.65;15.45;;;;;;;0.49;59.11;100086.88;4424140;32;32922;-73
2022/01/20 05:51:55;;;;;;;31.53;15.00;;;;;;;0.20;59.99;100087.59;4411334;32;33802;-73
2022/01/20 05:54:26;;;;;;;27.13;13.55;;;;;;;0.23;60.24;100079.22;4422923;32;34313;-72
2022/01/20 05:56:56;;;;;;;26.50;14.03;;;;;;;0.37;59.85;100087.97;4410636;32;34671;-73
2022/01/20 05:59:26;;;;;;;39.70;17.40;;;;;;;0.42;59.44;100083.00;4410841;32;33327;-72
2022/01/20 06:01:59;;;;;;;90.57;44.63;;;;;;;0.30;59.84;100093.03;4397841;32;33818;-73
2022/01/20 06:04:37;;;;;;;131.65;63.30;;;;;;;0.64;69.84;100099.91;4424037;32;34478;-73
2022/01/20 06:07:04;;;;;;;73.28;32.95;;;;;;;0.68;65.98;100102.28;4397672;32;32102;-73
2022/01/20 06:09:32;;;;;;;42.07;18.43;;;;;;;0.60;63.85;100092.19;4409887;32;34124;-73
2022/01/20 06:12:01;;;;;;;33.10;15.88;;;;;;;0.60;61.19;100087.66;4424319;32;33852;-73
2022/01/20 06:14:28;;;;;;;42.50;17.27;;;;;;;0.47;60.52;100087.03;4420781;32;35286;-72
2022/01/20 06:16:56;;;;;;;30.17;15.77;;;;;;;0.56;59.68;100085.34;4408414;32;34386;-72
2022/01/20 06:19:24;;;;;;;31.53;15.33;;;;;;;0.37;59.89;100080.72;4405990;32;33197;-73
2022/01/20 06:21:52;;;;;;;35.33;15.30;;;;;;;0.24;60.38;100078.22;4422145;32;34841;-72
2022/01/20 06:24:25;;;;;;;34.00;16.40;;;;;;;0.42;59.95;100077.59;4423226;32;34438;-72
2022/01/20 06:26:52;;;;;;;52.37;25.53;;;;;;;0.44;59.53;100073.78;4423847;32;34627;-72
2022/01/20 06:29:20;;;;;;;79.97;34.60;;;;;;;0.34;60.28;100070.19;4410430;32;34280;-73
2022/01/20 06:31:48;;;;;;;48.97;23.30;;;;;;;0.21;60.57;100067.69;4407948;32;33804;-72
2022/01/20 06:34:16;;;;;;;69.50;35.37;;;;;;;0.28;60.41;100076.97;4407875;32;33995;-72
2022/01/20 06:36:47;;;;;;;56.73;30.20;;;;;;;0.22;60.76;100077.50;4421789;32;33983;-72
2022/01/20 06:39:15;;;;;;;42.27;22.93;;;;;;;0.18;60.98;100088.69;4422564;32;33368;-72
2022/01/20 06:41:48;;;;;;;35.05;18.05;;;;;;;0.40;60.29;100082.28;4422804;32;33736;-72
2022/01/20 06:44:15;;;;;;;40.30;21.60;;;;;;;0.36;60.83;100079.00;4409599;32;34438;-72
2022/01/20 06:46:43;;;;;;;44.75;20.58;;;;;;;0.49;60.39;100079.62;4397328;32;32201;-72
2022/01/20 06:49:12;;;;;;;31.60;15.75;;;;;;;0.41;61.31;100081.31;4392232;32;34904;-73
2022/01/20 06:51:40;;;;;;;31.93;14.27;;;;;;;0.70;61.30;100073.31;4394527;32;32337;-73
2022/01/20 06:54:10;;;;;;;30.67;14.07;;;;;;;0.69;62.96;100068.88;4400292;32;34424;-73
2022/01/20 06:56:41;;;;;;;32.07;16.77;;;;;;;0.64;64.79;100069.34;4411208;32;34586;-73
2022/01/20 06:59:10;;;;;;;34.78;16.27;;;;;;;0.84;65.36;100073.78;4425993;32;34245;-72
2022/01/20 07:01:39;;;;;;;37.37;15.97;;;;;;;1.24;64.55;100057.53;4438910;32;34723;-73
2022/01/20 07:04:10;;;;;;;31.60;16.17;;;;;;;1.28;64.44;100049.97;4425883;32;35782;-73
2022/01/20 07:06:37;;;;;;;28.50;13.43;;;;;;;1.51;64.15;100050.53;4439641;32;34897;-73
2022/01/20 07:09:12;;;;;;;30.55;15.05;;;;;;;1.68;63.76;100047.13;4424912;32;31736;-74
2022/01/20 07:11:40;;;;;;;27.48;14.05;;;;;;;1.50;64.28;100044.28;4425986;32;33801;-73
2022/01/20 07:14:08;;;;;;;30.60;16.35;;;;;;;1.67;63.93;100041.84;4425499;32;34656;-73
2022/01/20 07:16:35;;;;;;;34.95;16.65;;;;;;;1.86;63.43;100050.81;4439008;32;33910;-73
2022/01/20 07:19:06;;;;;;;28.38;15.75;;;;;;;1.84;63.60;100041.13;4409622;32;31815;-73
2022/01/20 07:21:34;;;;;;;33.28;15.63;;;;;;;1.88;63.57;100035.28;4421077;32;33540;-73
2022/01/20 07:24:02;;;;;;;34.20;17.15;;;;;;;2.08;63.09;100024.38;4438585;32;35055;-73
2022/01/20 07:26:34;;;;;;;37.85;19.30;;;;;;;2.07;63.49;100036.22;4425225;32;34734;-73
2022/01/20 07:29:03;;;;;;;33.50;16.27;;;;;;;2.02;63.35;100019.56;4424992;32;33622;-73
2022/01/20 07:31:33;;;;;;;36.08;17.98;;;;;;;1.94;63.61;100020.31;4437536;32;33462;-73
2022/01/20 07:34:00;;;;;;;39.10;17.65;;;;;;;1.98;63.62;100019.00;4412265;32;32899;-73
2022/01/20 07:36:28;;;;;;;39.33;17.85;;;;;;;2.08;63.62;100021.69;4437515;32;34684;-73
2022/01/20 07:38:56;;;;;;;32.65;17.75;;;;;;;2.37;63.10;100021.59;4411265;32;34074;-73
2022/01/20 07:41:27;;;;;;;34.50;17.90;;;;;;;2.48;62.68;100024.13;4425007;32;33662;-73
2022/01/20 07:43:55;;;;;;;35.45;16.70;;;;;;;2.54;62.53;100013.53;4424292;32;32874;-73
2022/01/20 07:46:25;;;;;;;30.37;15.80;;;;;;;2.56;62.42;100024.22;4438711;32;33615;-73
2022/01/20 07:48:53;;;;;;;33.50;15.70;;;;;;;2.66;62.34;100008.75;4424816;32;34198;-73
2022/01/20 07:51:21;;;;;;;37.80;19.65;;;;;;;2.63;62.45;100012.59;4424588;32;34241;-73
2022/01/20 07:53:49;;;;;;;37.97;21.83;;;;;;;2.72;62.55;100000.00;4437275;32;34379;-73
2022/01/20 07:56:17;;;;;;;41.88;21.33;;;;;;;2.81;62.39;99999.09;4411874;32;32209;-73
2022/01/20 07:58:45;;;;;;;37.70;20.60;;;;;;;2.98;62.02;100009.13;4424213;32;31914;-73
2022/01/20 08:01:16;;;;;;;38.80;20.77;;;;;;;3.25;61.32;100010.91;4425104;32;34374;-73
2022/01/20 08:03:45;;;;;;;38.08;19.08;;;;;;;2.93;62.64;100016.00;4424691;32;34217;-73
2022/01/20 08:06:12;;;;;;;41.00;19.17;;;;;;;2.96;62.54;100022.00;4438200;32;34082;-73
2022/01/20 08:08:40;;;;;;;42.95;21.75;;;;;;;3.11;62.33;100024.19;4411653;32;31840;-73
2022/01/20 08:11:10;;;;;;;36.90;20.33;;;;;;;3.29;61.86;100016.87;4424397;32;32007;-73
2022/01/20 08:13:40;;;;;;;35.05;17.58;;;;;;;3.23;61.93;100025.66;4424526;32;35190;-73
2022/01/20 08:16:08;;;;;;;44.15;19.73;;;;;;;3.40;61.35;100022.09;4437107;32;33796;-73
2022/01/20 08:18:36;;;;;;;36.63;18.20;;;;;;;3.35;61.44;100029.84;4424018;32;32898;-73
2022/01/20 08:21:05;;;;;;;33.40;17.42;;;;;;;3.58;60.98;100020.22;4437986;32;33778;-74
2022/01/20 08:23:35;;;;;;;35.60;17.25;;;;;;;3.54;60.98;100012.56;4411348;32;33474;-74
2022/01/20 08:26:06;;;;;;;41.65;19.60;;;;;;;3.66;60.86;100024.03;4412175;32;32941;-73
2022/01/20 08:28:34;;;;;;;57.40;25.73;;;;;;;3.74;60.79;100019.50;4436944;32;34207;-73
2022/01/20 08:31:11;;;;;;;28.67;12.60;;;;;;;3.73;60.62;100022.38;4411485;32;35419;-74
2022/01/20 08:33:41;;;;;;;59.95;27.00;;;;;;;4.01;69.99;100025.81;4425212;32;34579;-74
2022/01/20 08:36:09;;;;;;;48.72;23.10;;;;;;;4.27;65.95;100023.94;4440552;32;34889;-74
2022/01/20 08:38:52;;;;;;;55.05;26.35;;;;;;;4.30;63.34;100029.06;4426477;32;33197;-75
2022/01/20 08:41:21;;;;;;;53.10;25.02;;;;;;;4.28;61.50;100029.22;4426654;32;33905;-75
2022/01/20 08:43:53;;;;;;;45.10;22.08;;;;;;;4.32;60.67;100029.75;4440299;32;35153;-74
2022/01/20 08:46:23;;;;;;;40.80;20.55;;;;;;;4.39;60.28;100016.37;4426579;32;34638;-74
2022/01/20 08:48:51;;;;;;;35.42;18.50;;;;;;;4.50;59.70;100016.97;4413671;32;32806;-74
2022/01/20 08:51:19;;;;;;;28.80;16.30;;;;;;;4.57;59.31;100003.53;4426503;32;34634;-74
2022/01/20 08:53:47;;;;;;;37.80;18.40;;;;;;;4.60;59.10;100000.50;4439139;32;34120;-74
2022/01/20 08:56:15;;;;;;;43.87;20.00;;;;;;;4.67;58.99;100006.13;4440103;32;33970;-76
2022/01/20 08:58:43;;;;;;;40.53;20.08;;;;;;;4.56;59.40;100015.44;4426224;32;33263;-74
2022/01/20 09:01:11;;;;;;;39.63;19.67;;;;;;;4.75;58.94;100006.16;4440440;32;33799;-74
2022/01/20 09:03:39;;;;;;;38.85;19.25;;;;;;;4.57;59.28;100006.25;4426105;32;34793;-74
2022/01/20 09:06:08;;;;;;;40.15;20.02;;;;;;;4.76;58.91;100007.88;4426380;32;34022;-74
2022/01/20 09:08:36;;;;;;;34.13;16.55;;;;;;;4.71;58.93;100005.66;4425983;32;31752;-75
2022/01/20 09:11:09;;;;;;;35.40;17.23;;;;;;;4.54;59.21;100015.62;4413300;32;32677;-74
2022/01/20 09:16:23;;;;;;;32.78;15.80;;;;;;;4.75;58.69;100017.91;4425854;32;32562;-75
2022/01/20 09:18:51;;;;;;;26.65;14.30;;;;;;;4.79;58.63;100021.13;4413676;32;33349;-74
2022/01/20 09:21:22;;;;;;;28.08;15.18;;;;;;;4.93;58.40;100026.81;4426496;32;33893;-75
2022/01/20 09:23:50;;;;;;;31.62;15.52;;;;;;;4.86;58.53;100030.34;4426369;32;35258;-74
2022/01/20 09:26:18;;;;;;;25.42;13.75;;;;;;;4.67;58.81;100012.41;4425878;32;33373;-74
2022/01/20 09:28:46;;;;;;;27.50;14.75;;;;;;;4.91;58.48;100020.69;4425830;32;32823;-75
2022/01/20 09:31:14;;;;;;;26.42;14.15;;;;;;;5.02;58.04;100021.41;4413056;32;33350;-74
2022/01/20 09:33:42;;;;;;;29.55;14.60;;;;;;;5.13;57.86;100018.38;4426219;32;35282;-74
2022/01/20 09:36:12;;;;;;;29.00;14.85;;;;;;;5.16;57.72;100026.19;4425941;32;33925;-74
2022/01/20 09:38:40;;;;;;;31.48;15.70;;;;;;;5.10;57.97;100018.72;4426163;32;33296;-74
2022/01/20 09:41:13;;;;;;;39.05;19.95;;;;;;;5.10;58.11;100022.28;4413623;32;33530;-74
2022/01/20 09:43:44;;;;;;;32.25;16.65;;;;;;;5.15;57.94;100019.91;4400664;32;33900;-74
2022/01/20 09:46:12;;;;;;;33.45;15.00;;;;;;;5.21;58.08;100011.06;4424851;32;32683;-74
2022/01/20 09:48:42;;;;;;;27.92;14.18;;;;;;;5.24;58.13;100015.31;4426194;32;33469;-74
2022/01/20 09:51:13;;;;;;;30.05;15.45;;;;;;;5.09;58.50;100012.41;4439984;32;34532;-74
2022/01/20 09:53:43;;;;;;;27.27;15.13;;;;;;;5.23;57.90;100014.47;4426292;32;34392;-74
2022/01/20 09:56:17;;;;;;;27.95;14.73;;;;;;;5.23;57.91;100017.19;4426488;32;33892;-74
2022/01/20 09:58:45;;;;;;;22.73;12.18;;;;;;;5.46;57.58;100019.25;4425719;32;31708;-74
2022/01/20 10:01:15;;;;;;;21.52;11.18;;;;;;;4.78;59.58;100017.56;4426010;32;34020;-74
2022/01/20 10:03:49;;;;;;;18.77;8.70;;;;;;;5.41;58.33;100011.59;4439484;32;35175;-74
2022/01/20 10:06:19;;;;;;;18.80;9.52;;;;;;;5.13;59.15;100010.22;4439847;32;33828;-74
2022/01/20 10:08:57;;;;;;;19.45;9.10;;;;;;;5.47;58.67;100005.50;4413060;32;31800;-74
2022/01/20 10:11:50;;;;;;;24.60;9.82;;;;;;;5.34;59.23;99999.69;4428079;32;34523;-74
2022/01/20 10:14:19;;;;;;;18.52;9.02;;;;;;;5.32;59.51;100007.16;4413118;32;34034;-74
2022/01/20 10:16:47;;;;;;;29.15;13.57;;;;;;;5.50;60.18;100005.16;4413091;32;33371;-74
2022/01/20 10:19:28;;;;;;;19.12;10.15;;;;;;;5.13;63.91;99996.59;4413032;32;31864;-74
2022/01/20 10:21:56;;;;;;;16.10;9.02;;;;;;;5.32;62.14;100007.16;4426036;32;34414;-74
2022/01/20 10:24:27;;;;;;;19.17;10.27;;;;;;;5.41;62.44;99998.00;4412900;32;32847;-74
2022/01/20 10:26:56;;;;;;;18.60;10.10;;;;;;;5.39;63.18;99989.16;4425786;32;33897;-74
2022/01/20 10:29:25;;;;;;;16.95;8.57;;;;;;;5.43;63.35;99982.34;4439482;32;34053;-74
2022/01/20 10:32:12;;;;;;;24.30;8.32;;;;;;;5.38;63.80;99971.13;4428154;32;33779;-74
2022/01/20 10:34:40;;;;;;;19.17;8.75;;;;;;;4.76;66.64;99978.81;4425587;32;35257;-74
2022/01/20 10:37:14;;;;;;;16.23;8.65;;;;;;;4.81;67.58;99972.88;4425880;32;33562;-74
2022/01/20 10:39:47;;;;;;;14.85;7.97;;;;;;;5.26;66.21;99958.84;4426505;32;33998;-74
2022/01/20 10:42:19;;;;;;;15.93;7.05;;;;;;;5.40;66.06;99963.63;4413255;32;34621;-75
2022/01/20 10:44:48;;;;;;;14.20;7.75;;;;;;;5.28;66.52;99959.53;4400336;32;33897;-74
2022/01/20 10:47:28;;;;;;;12.13;6.33;;;;;;;5.06;67.50;99954.78;4436514;32;34017;-74
2022/01/20 10:50:18;;;;;;;12.40;6.07;;;;;;;5.22;67.37;99958.34;4395024;32;31472;-74
2022/01/20 10:52:47;;;;;;;14.15;6.55;;;;;;;4.86;68.58;99949.63;4408879;32;33544;-75
2022/01/20 10:55:26;;;;;;;14.68;5.35;;;;;;;4.91;69.05;99944.53;4397717;32;33251;-74
2022/01/20 10:58:21;;;;;;;12.80;6.10;;;;;;;4.72;69.97;99933.94;4410692;32;34707;-75
2022/01/20 11:00:51;;;;;;;10.82;5.45;;;;;;;4.93;69.05;99931.63;4397784;32;32709;-74
2022/01/20 11:03:20;;;;;;;10.93;5.43;;;;;;;4.75;69.92;99921.88;4410342;32;33899;-75
2022/01/20 11:05:50;;;;;;;10.70;5.65;;;;;;;5.04;69.29;99905.12;4397442;32;33002;-74
2022/01/20 11:08:23;;;;;;;10.43;5.32;;;;;;;4.76;70.12;99913.56;4410462;32;33934;-74
2022/01/20 11:10:52;;;;;;;11.85;5.97;;;;;;;4.89;70.28;99903.06;4410012;32;33215;-74
2022/01/20 11:13:20;;;;;;;12.80;5.22;;;;;;;4.82;70.60;99901.19;4423875;32;33564;-75
2022/01/20 11:15:50;;;;;;;10.38;5.07;;;;;;;5.04;69.30;99897.81;4409986;32;34639;-74
2022/01/20 11:18:18;;;;;;;14.05;5.72;;;;;;;5.19;68.54;99907.00;4410014;32;32372;-74
2022/01/20 11:20:50;;;;;;;9.73;5.15;;;;;;;5.12;68.50;99903.25;4409860;32;33320;-75
2022/01/20 11:23:20;;;;;;;11.12;5.05;;;;;;;5.14;68.40;99911.25;4397963;32;33581;-74
2022/01/20 11:25:49;;;;;;;9.40;5.25;;;;;;;5.05;68.55;99909.53;4410302;32;34023;-74
2022/01/20 11:28:21;;;;;;;11.18;6.37;;;;;;;5.18;67.63;99908.03;4409674;32;32413;-75
2022/01/20 11:31:08;;;;;;;9.20;5.03;;;;;;;5.15;67.14;99891.19;4410178;32;33184;-75
2022/01/20 11:33:41;;;;;;;11.55;6.18;;;;;;;5.27;66.95;99882.50;4396094;32;31888;-75
2022/01/20 11:36:26;;;;;;;9.05;4.97;;;;;;;5.19;66.74;99868.06;4408220;32;35163;-74
2022/01/20 11:39:13;;;;;;;17.90;7.47;;;;;;;5.19;66.79;99847.16;4409355;32;32649;-75
2022/01/20 11:41:48;;;;;;;10.10;4.53;;;;;;;5.48;65.80;99838.44;4409459;32;33518;-75
2022/01/20 11:44:18;;;;;;;17.40;6.80;;;;;;;5.51;65.29;99846.25;4409388;32;32281;-75
2022/01/20 11:46:49;;;;;;;10.75;5.55;;;;;;;5.58;64.90;99833.66;4396759;32;34788;-75
2022/01/20 11:49:23;;;;;;;10.52;4.70;;;;;;;5.65;64.59;99811.19;4423090;32;34589;-75
2022/01/20 11:51:51;;;;;;;7.05;4.45;;;;;;;5.71;64.77;99824.09;4409013;32;31681;-75
2022/01/20 11:54:32;;;;;;;;;;;;;;;5.66;64.91;99826.50;4423411;32;34801;-74
2022/01/20 11:57:30;;;;;;;8.48;4.00;;;;;;;5.56;64.66;99821.22;4408663;32;33088;-74
2022/01/20 12:00:02;;;;;;;8.68;4.22;;;;;;;5.56;64.40;99810.34;4391064;32;33589;-75
2022/01/20 12:02:41;;;;;;;10.60;4.62;;;;;;;5.65;66.12;99820.19;4409003;32;31760;-75
2022/01/20 12:05:26;;;;;;;12.60;5.55;;;;;;;5.87;63.29;99813.97;4409085;32;33840;-75
2022/01/20 12:08:15;;;;;;;8.25;4.12;;;;;;;5.58;63.81;99800.12;4409233;32;32984;-75
2022/01/20 12:10:45;;;;;;;10.02;5.05;;;;;;;5.78;63.22;99806.03;4410936;32;34599;-75
2022/01/20 12:13:16;;;;;;;7.68;4.22;;;;;;;5.94;62.81;99809.56;4423774;32;34074;-75
2022/01/20 12:15:48;;;;;;;9.00;4.68;;;;;;;5.95;62.17;99788.63;4411098;32;32140;-74
2022/01/20 12:18:17;;;;;;;10.18;5.07;;;;;;;5.87;62.25;99796.78;4424836;32;34491;-74
2022/01/20 12:20:47;;;;;;;9.07;4.50;;;;;;;5.93;62.42;99794.25;4423695;32;34764;-74
2022/01/20 12:23:16;;;;;;;8.63;4.07;;;;;;;5.93;62.16;99787.94;4410667;32;31714;-74
2022/01/20 12:25:44;;;;;;;8.02;4.03;;;;;;;6.12;60.69;99786.66;4410707;32;32066;-75
2022/01/20 12:28:14;;;;;;;8.98;3.90;;;;;;;6.00;60.65;99799.81;4410887;32;34411;-75
2022/01/20 12:30:50;;;;;;;7.68;3.87;;;;;;;5.92;60.72;99778.06;4410627;32;32764;-74
2022/01/20 12:33:22;;;;;;;9.95;3.75;;;;;;;6.03;60.01;99766.78;4411645;32;34125;-75
2022/01/20 12:36:04;;;;;;;7.20;3.83;;;;;;;6.21;59.19;99759.19;4410935;32;32094;-75
2022/01/20 12:38:39;;;;;;;8.32;4.32;;;;;;;6.17;58.84;99770.63;4423589;32;35032;-75
2022/01/20 12:41:14;;;;;;;8.25;4.00;;;;;;;6.41;58.30;99766.91;4410747;32;34002;-75
2022/01/20 12:43:45;;;;;;;8.35;4.00;;;;;;;6.36;58.32;99764.72;4411121;32;33112;-74
2022/01/20 12:46:19;;;;;;;6.87;3.58;;;;;;;6.26;57.86;99761.38;4398666;32;34395;-75
2022/01/20 12:49:14;;;;;;;7.45;3.67;;;;;;;6.15;58.31;99761.78;4410638;32;33994;-75
2022/01/20 12:51:42;;;;;;;7.55;4.18;;;;;;;6.55;57.63;99747.03;4409234;32;34533;-75
2022/01/20 12:54:30;;;;;;;8.05;4.12;;;;;;;6.39;57.58;99739.84;4410709;32;34037;-74